Aviation Digital Data Service (ADDS)

Output produced by METARs form (1227 UTC 25 April 2015)
found at http://aviationweather.gov/adds/metars/
 
KCDW 251153Z 29008KT 10SM CLR 04/M06 A2993 RMK AO2 SLP141 T00391056 10039 20006 50001
KMMU 251145Z 31009KT 15SM SCT250 04/M05 A2994
KFWN 251153Z AUTO 34004KT 10SM CLR 03/M05 A2992 RMK AO2 SLP135 T00281050 10028 21033 51002
KTEB 251151Z 30009G17KT 10SM CLR 04/M06 A2992 RMK AO2 SLP131 T00441056 10044 20017 51003
KTEB 251123Z 2512/2612 29008KT P6SM SKC 
     FM251400 30009G15KT P6SM SCT250 
     FM252000 26008KT P6SM FEW050 SCT250 
     FM252300 VRB03KT P6SM SCT250 
     FM260600 01003KT P6SM BKN250
       
KEWR 251151Z 29010KT 10SM SCT270 06/M04 A2993 RMK AO2 SLP134 T00561044 10056 20022 50000
KEWR 251123Z 2512/2618 29009KT P6SM SKC 
     FM251400 30011G17KT P6SM SCT250 
     FM252000 27009KT P6SM FEW050 SCT250 
     FM260000 VRB04KT P6SM SCT250 
     FM260600 01005KT P6SM BKN250 
     FM261500 05006KT P6SM SCT050
       
KDXR 251153Z VRB05KT 10SM CLR 02/M07 A2989 RMK AO2 SLP123 T00221067 10022 21044 51004
KHPN 251156Z 29012KT 10SM CLR 03/M06 A2987 RMK AO2 SLP120 T00331056 10033 20011 58001
KHPN 251123Z 2512/2612 30006KT P6SM SKC 
     FM251400 30010G16KT P6SM SCT250 
     FM252100 29008KT P6SM FEW050 SCT250 
     FM260000 VRB03KT P6SM BKN250 
     FM260400 35004KT P6SM BKN250 AMD NOT SKED
       
KABE 251151Z 30004KT 10SM CLR 04/M04 A2994 RMK AO2 SLP140 T00441044 10044 21028 58002
KABE 251129Z 2512/2612 24004KT P6SM BKN200 
     FM251700 29008G15KT P6SM SCT200 
     FM260000 00000KT P6SM SCT200
       
KAVP 251154Z 34005KT 10SM CLR 03/M06 A2991 RMK AO2 SLP134 T00281056 10028 20000 58002 $
KAVP 251130Z 2512/2612 32005KT P6SM BKN200 
     FM251400 32010KT P6SM SCT060 BKN200 
     FM260000 34005KT P6SM SKC
       
KSWF 251045Z 28008KT 20SM SKC M01/M04 A2990
KSWF 251123Z 2512/2618 27007KT P6SM SKC 
     FM251400 29010KT P6SM FEW050 SCT250 
     FM252300 VRB03KT P6SM SCT250 
     FM260200 04004KT P6SM BKN250 
     FM261700 34006KT P6SM SCT050 AMD NOT SKED
       
KMSV 251215Z AUTO 28009KT 10SM CLR M01/M06 A2987 RMK AO1
KPOU 251153Z 24005KT 10SM CLR 03/M04 A2989 RMK AO2 SLP121 T00331039 10033 21033 51005
KPOU 251139Z 2512/2612 28005KT P6SM SKC 
     FM251600 30008G18KT P6SM SCT050 
     FM252300 32003KT P6SM FEW050 
     FM260300 00000KT P6SM SKC
       
KACY 251154Z 32007KT 10SM CLR 06/M03 A2994 RMK AO2 SLP139 T00561033 10056 21017 58006
KACY 251129Z 2512/2612 28005KT P6SM BKN200 
     FM251700 27008KT P6SM BKN150 
     FM252100 19008KT P6SM SCT150 
     FM260500 36004KT P6SM OVC100
       
KGON 251156Z 30011KT 10SM CLR 04/M06 A2984 RMK AO2 SLP104 T00391056 10039 20006 50003
KGON 251123Z 2512/2612 29010KT P6SM SKC 
     FM251400 29011G19KT P6SM SCT250 
     FM252200 26008KT P6SM FEW050 SCT250 
     FM260500 36004KT P6SM BKN250